createdAt,value
2023-04-11T00:00:42.490Z,9.00
2023-04-11T00:05:45.525Z,9.60
2023-04-11T00:10:49.656Z,11.60
2023-04-11T00:15:55.362Z,9.00
2023-04-11T00:20:58.136Z,10.00
2023-04-11T00:26:02.387Z,8.00
2023-04-11T00:31:05.403Z,12.60
2023-04-11T00:36:09.496Z,10.20
2023-04-11T00:41:13.622Z,9.60
2023-04-11T00:46:17.038Z,8.80
2023-04-11T00:51:19.955Z,10.00
2023-04-11T00:56:24.098Z,10.20
2023-04-11T01:01:30.067Z,11.60
2023-04-11T01:06:33.625Z,10.80
2023-04-11T01:11:37.825Z,8.00
2023-04-11T01:16:40.758Z,9.00
2023-04-11T01:21:43.618Z,8.60
2023-04-11T01:26:47.688Z,9.00
2023-04-11T01:31:52.327Z,9.00
2023-04-11T01:36:55.165Z,9.40
2023-04-11T01:41:59.387Z,9.00
2023-04-11T01:47:02.137Z,6.00
2023-04-11T01:52:04.980Z,8.60
2023-04-11T01:57:09.124Z,9.00
2023-04-11T02:02:12.346Z,8.00
2023-04-11T02:07:15.326Z,11.40
2023-04-11T02:12:19.496Z,9.00
2023-04-11T02:17:25.758Z,8.00
2023-04-11T02:22:28.789Z,7.60
2023-04-11T02:27:32.997Z,10.40
2023-04-11T02:32:35.992Z,9.40
2023-04-11T02:37:38.793Z,9.40
2023-04-11T02:42:43.308Z,6.00
2023-04-11T02:47:46.883Z,8.60
2023-04-11T02:52:50.195Z,8.60
2023-04-11T02:57:58.546Z,9.00
2023-04-11T03:03:02.561Z,8.00
2023-04-11T03:08:09.851Z,10.20
2023-04-11T03:13:17.745Z,9.00
2023-04-11T03:18:22.378Z,6.00
2023-04-11T03:23:25.308Z,6.00
2023-04-11T03:28:30.051Z,7.20
2023-04-11T03:33:33.515Z,9.00
2023-04-11T03:38:36.545Z,8.20
2023-04-11T03:43:40.853Z,6.60
2023-04-11T03:48:47.061Z,6.80
2023-04-11T03:53:52.266Z,7.00
2023-04-11T03:59:07.394Z,9.40
2023-04-11T04:04:23.081Z,9.00
2023-04-11T04:09:35.732Z,10.20
2023-04-11T04:14:41.134Z,10.60
2023-04-11T04:19:45.593Z,8.00
2023-04-11T04:24:50.149Z,9.00
2023-04-11T04:30:03.644Z,8.00
2023-04-11T04:35:22.228Z,6.80
2023-04-11T04:40:26.060Z,10.20
2023-04-11T04:45:38.250Z,7.40
2023-04-11T04:50:41.223Z,7.00
2023-04-11T04:55:44.171Z,9.80
2023-04-11T05:00:49.464Z,10.60
2023-04-11T05:05:59.542Z,6.40
2023-04-11T05:11:02.651Z,9.40
2023-04-11T05:16:08.503Z,6.40
2023-04-11T05:21:11.713Z,8.20
2023-04-11T05:26:17.340Z,8.20
2023-04-11T05:31:21.911Z,8.40
2023-04-11T05:36:24.915Z,8.20
2023-04-11T05:41:27.701Z,8.00
2023-04-11T05:46:35.576Z,7.40
2023-04-11T05:51:38.537Z,8.00
2023-04-11T05:56:42.842Z,7.80
2023-04-11T06:01:47.198Z,8.80
2023-04-11T06:06:49.992Z,7.40
2023-04-11T06:11:52.890Z,6.80
2023-04-11T06:16:57.069Z,9.60
2023-04-11T06:22:00.030Z,9.00
2023-04-11T06:27:03.497Z,10.40
2023-04-11T06:32:07.742Z,6.80
2023-04-11T06:37:10.718Z,10.60
2023-04-11T06:42:13.481Z,8.00
2023-04-11T06:47:21.082Z,10.60
2023-04-11T06:52:24.579Z,8.00
2023-04-11T06:57:28.632Z,8.60
2023-04-11T07:02:35.687Z,8.00
2023-04-11T07:07:38.857Z,7.80
2023-04-11T07:12:41.627Z,6.80
2023-04-11T07:17:45.829Z,8.80
2023-04-11T07:27:51.708Z,7.80
2023-04-11T07:32:55.912Z,8.40
2023-04-11T07:37:58.853Z,9.00
2023-04-11T07:43:02.092Z,9.00
2023-04-11T07:48:06.629Z,8.20
2023-04-11T07:53:10.857Z,8.40
2023-04-11T07:58:13.635Z,6.20
2023-04-11T08:03:17.963Z,8.80
2023-04-11T08:08:20.955Z,7.40
2023-04-11T08:13:23.694Z,9.00
2023-04-11T08:18:27.827Z,7.40
2023-04-11T08:23:30.752Z,2.00
2023-04-11T08:28:33.484Z,1.00
2023-04-11T08:33:37.709Z,1.20
2023-04-11T08:38:41.694Z,2.00
2023-04-11T08:43:46.896Z,2.00
2023-04-11T08:48:51.155Z,1.00
2023-04-11T08:54:03.833Z,4.40
2023-04-11T08:59:11.824Z,4.00
2023-04-11T09:04:16.038Z,2.00
2023-04-11T09:09:29.364Z,3.60
2023-04-11T09:14:32.753Z,1.20
2023-04-11T09:19:37.200Z,2.80
2023-04-11T09:24:39.938Z,2.20
2023-04-11T09:29:43.349Z,4.40
2023-04-11T09:34:49.417Z,1.20
2023-04-11T09:39:59.994Z,2.00
2023-04-11T09:45:03.836Z,2.80
2023-04-11T09:50:08.968Z,3.20
2023-04-11T09:55:12.893Z,2.00
2023-04-11T10:00:17.265Z,4.00
2023-04-11T10:05:22.114Z,2.80
2023-04-11T10:10:25.036Z,2.00
2023-04-11T10:15:28.008Z,2.40
2023-04-11T10:20:49.771Z,1.40
2023-04-11T10:25:56.331Z,3.60
2023-04-11T10:31:17.481Z,2.00
2023-04-11T10:36:23.045Z,153.25
2023-04-11T10:41:28.000Z,243.00
2023-04-11T10:46:30.925Z,318.00
2023-04-11T10:51:35.373Z,389.50
2023-04-11T10:56:57.258Z,403.25
2023-04-11T11:02:01.348Z,456.00
2023-04-11T11:07:07.130Z,543.33
2023-04-11T11:12:10.113Z,503.67
2023-04-11T11:17:13.125Z,536.50
2023-04-11T11:22:17.527Z,447.00
2023-04-11T11:27:22.517Z,388.50
2023-04-11T11:32:28.394Z,340.75
2023-04-11T11:37:32.950Z,359.50
2023-04-11T11:42:35.894Z,336.75
2023-04-11T11:47:42.534Z,307.25
2023-04-11T11:52:48.900Z,280.00
2023-04-11T11:57:52.046Z,291.50
2023-04-11T12:02:55.964Z,275.67
2023-04-11T12:08:01.217Z,300.00
2023-04-11T12:13:04.184Z,285.00
2023-04-11T12:18:07.582Z,263.00
2023-04-11T12:23:11.912Z,265.67
2023-04-11T12:28:14.736Z,241.67
2023-04-11T12:33:17.782Z,241.33
2023-04-11T12:38:22.688Z,244.67
2023-04-11T12:43:25.608Z,245.00
2023-04-11T12:48:28.516Z,217.75
2023-04-11T12:53:32.902Z,222.00
2023-04-11T12:58:35.799Z,193.75
2023-04-11T13:03:38.962Z,193.50
2023-04-11T13:08:43.465Z,192.75
2023-04-11T13:13:46.462Z,200.50
2023-04-11T13:18:49.477Z,174.50
2023-04-11T13:23:53.725Z,151.75
2023-04-11T13:28:56.937Z,168.50
2023-04-11T13:34:00.073Z,156.25
2023-04-11T13:39:05.798Z,167.00
2023-04-11T13:44:08.880Z,148.50
2023-04-11T13:49:12.050Z,157.25
2023-04-11T13:54:16.347Z,153.25
2023-04-11T13:59:19.284Z,171.25
2023-04-11T14:04:22.431Z,155.75
2023-04-11T14:09:27.279Z,154.25
2023-04-11T14:14:30.152Z,146.25
2023-04-11T14:19:32.987Z,152.25
2023-04-11T14:24:37.122Z,141.00
2023-04-11T14:29:40.597Z,142.25
2023-04-11T14:34:43.677Z,131.50
2023-04-11T14:39:47.942Z,126.25
2023-04-11T14:44:51.626Z,128.25
2023-04-11T14:49:54.387Z,120.50
2023-04-11T14:54:58.780Z,104.75
2023-04-11T15:00:03.016Z,106.00
2023-04-11T15:05:08.482Z,103.50
2023-04-11T15:10:13.355Z,94.50
2023-04-11T15:15:17.613Z,97.50
2023-04-11T15:20:20.920Z,93.00
2023-04-11T15:25:25.159Z,88.75
2023-04-11T15:30:28.248Z,88.75
2023-04-11T15:35:31.044Z,82.75
2023-04-11T15:40:35.423Z,87.00
2023-04-11T15:45:39.413Z,79.75
2023-04-11T15:50:42.419Z,76.67
2023-04-11T15:55:47.647Z,72.33
2023-04-11T16:00:51.309Z,72.33
2023-04-11T16:05:54.310Z,74.67
2023-04-11T16:10:58.507Z,65.33
2023-04-11T16:16:01.514Z,68.33
2023-04-11T16:21:04.889Z,68.33
2023-04-11T16:26:09.612Z,70.67
2023-04-11T16:31:15.140Z,62.00
2023-04-11T16:36:18.053Z,63.00
2023-04-11T16:41:22.348Z,62.25
2023-04-11T16:46:25.326Z,59.67
2023-04-11T16:51:28.446Z,61.00
2023-04-11T16:56:32.659Z,53.50
2023-04-11T17:01:35.637Z,57.00
2023-04-11T17:06:38.785Z,52.25
2023-04-11T17:11:42.921Z,58.50
2023-04-11T17:16:46.373Z,53.75
2023-04-11T17:21:49.229Z,51.00
2023-04-11T17:26:53.408Z,55.00
2023-04-11T17:31:56.666Z,41.00
2023-04-11T17:36:59.624Z,45.25
2023-04-11T17:42:03.780Z,48.25
2023-04-11T17:47:07.151Z,39.50
2023-04-11T17:52:09.899Z,37.60
2023-04-11T17:57:15.103Z,31.20
2023-04-11T18:02:19.516Z,40.00
2023-04-11T18:07:24.364Z,40.20
2023-04-11T18:12:29.499Z,40.20
2023-04-11T18:17:33.235Z,40.20
2023-04-11T18:22:36.343Z,37.20
2023-04-11T18:27:40.750Z,40.00
2023-04-11T18:32:48.651Z,38.20
2023-04-11T18:37:53.968Z,33.20
2023-04-11T18:42:58.582Z,33.40
2023-04-11T18:48:01.676Z,33.40
2023-04-11T18:53:05.802Z,36.80
2023-04-11T18:58:15.238Z,31.80
2023-04-11T19:03:19.617Z,34.40
2023-04-11T19:08:22.563Z,30.60
2023-04-11T19:13:26.781Z,29.80
2023-04-11T19:18:30.043Z,31.40
2023-04-11T19:23:33.232Z,29.60
2023-04-11T19:28:37.340Z,29.40
2023-04-11T19:33:40.250Z,26.20
2023-04-11T19:38:43.338Z,32.60
2023-04-11T19:43:48.400Z,31.20
2023-04-11T19:48:51.461Z,24.60
2023-04-11T19:53:54.371Z,28.20
2023-04-11T19:58:58.492Z,27.60
2023-04-11T20:04:02.268Z,23.40
2023-04-11T20:09:05.581Z,29.60
2023-04-11T20:14:09.678Z,28.40
2023-04-11T20:19:12.529Z,24.20
2023-04-11T20:24:15.441Z,29.00
2023-04-11T20:29:21.257Z,24.20
2023-04-11T20:34:24.121Z,20.20
2023-04-11T20:39:27.436Z,25.20
2023-04-11T20:44:34.072Z,24.60
2023-04-11T20:49:36.825Z,24.80
2023-04-11T20:54:40.915Z,23.40
2023-04-11T20:59:45.024Z,25.60
2023-04-11T21:04:51.446Z,24.60
2023-04-11T21:09:56.210Z,26.00
2023-04-11T21:15:00.578Z,23.00
2023-04-11T21:20:07.280Z,21.60
2023-04-11T21:25:10.336Z,25.40
2023-04-11T21:30:14.998Z,24.80
2023-04-11T21:35:17.855Z,23.80
2023-04-11T21:40:20.767Z,19.80
2023-04-11T21:45:24.886Z,24.20
2023-04-11T21:50:27.754Z,23.40
2023-04-11T21:55:30.564Z,21.40
2023-04-11T22:00:34.734Z,15.80
2023-04-11T22:05:38.355Z,21.80
2023-04-11T22:10:47.755Z,18.80
2023-04-11T22:15:58.605Z,19.20
2023-04-11T22:21:03.062Z,18.00
2023-04-11T22:26:06.519Z,21.60
2023-04-11T22:31:13.530Z,19.00
2023-04-11T22:36:16.480Z,18.40
2023-04-11T22:41:19.253Z,18.00
2023-04-11T22:46:23.794Z,19.20
2023-04-11T22:51:29.870Z,19.40
2023-04-11T22:56:32.752Z,20.40
2023-04-11T23:01:37.030Z,20.60
2023-04-11T23:06:39.811Z,16.20
2023-04-11T23:11:42.635Z,17.80
2023-04-11T23:16:46.789Z,20.40
2023-04-11T23:21:49.734Z,18.00
2023-04-11T23:26:52.551Z,15.80
2023-04-11T23:31:56.673Z,17.40
2023-04-11T23:36:59.471Z,16.60
2023-04-11T23:42:02.409Z,14.00
2023-04-11T23:47:07.089Z,16.00
2023-04-11T23:52:11.119Z,16.80
2023-04-11T23:57:13.914Z,13.20
